Time;durP1;ratioP1;P1;durP2;ratioP2;P2;SDS_P1;SDS_P2;PMS_P1;PMS_P2;Temp;Humidity;BMP_temperature;BMP_pressure;BME280_temperature;BME280_humidity;BME280_pressure;Samples;Min_cycle;Max_cycle;Signal;HPM_P1;HPM_P2
2022/12/22 05:31:07;;;;;;;;;0.00;0.00;;;;;13.45;100.00;100590.63;6138905;22;1409119;-63
2022/12/22 05:33:32;;;;;;;;;0.00;0.00;;;;;13.48;100.00;100584.22;6188413;22;47021;-63
2022/12/22 05:35:58;;;;;;;;;0.00;0.00;;;;;13.57;100.00;100592.50;6215147;22;45126;-63
2022/12/22 05:38:23;;;;;;;;;1.00;0.00;;;;;13.57;100.00;100594.31;6216421;22;45908;-63
2022/12/22 05:40:48;;;;;;;;;0.00;0.00;;;;;13.53;100.00;100600.81;6214903;22;56265;-63
2022/12/22 05:43:15;;;;;;;;;0.00;0.00;;;;;13.62;100.00;100602.88;6216155;22;45883;-63
2022/12/22 05:45:41;;;;;;;;;0.33;0.00;;;;;13.76;100.00;100607.31;6216385;22;45331;-63
2022/12/22 05:48:06;;;;;;;;;0.00;0.00;;;;;13.63;100.00;100615.28;6189591;22;45286;-63
2022/12/22 05:50:31;;;;;;;;;0.00;0.00;;;;;13.62;100.00;100613.56;6215497;22;59304;-63
2022/12/22 05:52:57;;;;;;;;;0.00;0.00;;;;;13.63;100.00;100623.31;6216166;22;46054;-63
2022/12/22 05:55:23;;;;;;;;;0.00;0.00;;;;;13.63;100.00;100625.16;6188537;22;45365;-63
2022/12/22 05:57:48;;;;;;;;;0.00;0.00;;;;;13.63;100.00;100627.81;6215556;22;45337;-63
2022/12/22 06:00:14;;;;;;;;;3.33;0.00;;;;;13.64;100.00;100616.16;6216236;22;45249;-63
2022/12/22 06:02:40;;;;;;;;;2.00;0.00;;;;;13.65;100.00;100637.44;6216340;22;45861;-63
2022/12/22 06:05:06;;;;;;;;;0.00;0.00;;;;;13.67;100.00;100632.00;6215594;22;45260;-63
2022/12/22 06:07:32;;;;;;;;;0.00;0.00;;;;;13.70;100.00;100637.13;6215058;22;45415;-63
2022/12/22 06:09:57;;;;;;;;;0.00;0.00;;;;;13.70;100.00;100643.34;6188229;22;55257;-63
2022/12/22 06:12:22;;;;;;;;;0.00;0.00;;;;;13.68;100.00;100639.91;6214278;22;62681;-64
2022/12/22 06:14:48;;;;;;;;;0.00;0.00;;;;;13.68;100.00;100650.59;6215038;22;52526;-63
2022/12/22 06:17:13;;;;;;;;;0.00;0.00;;;;;13.69;100.00;100648.81;6214120;22;59459;-63
2022/12/22 06:19:38;;;;;;;;;1.00;0.00;;;;;13.65;100.00;100664.16;6215304;22;45285;-63
2022/12/22 06:22:04;;;;;;;;;0.00;0.00;;;;;13.77;100.00;100664.34;6213921;22;68993;-63
2022/12/22 06:24:29;;;;;;;;;0.00;0.00;;;;;13.57;100.00;100677.16;6215757;22;45366;-63
2022/12/22 06:26:54;;;;;;;;;1.00;0.00;;;;;13.53;100.00;100689.00;6214291;22;60438;-64
2022/12/22 06:29:20;;;;;;;;;0.00;0.00;;;;;13.49;100.00;100693.72;6215621;22;45277;-64
2022/12/22 06:31:45;;;;;;;;;0.00;0.00;;;;;13.47;100.00;100692.09;6214386;22;45258;-64
2022/12/22 06:34:11;;;;;;;;;1.33;0.00;;;;;13.44;100.00;100690.47;6215131;22;60934;-64
2022/12/22 06:36:37;;;;;;;;;0.00;0.00;;;;;13.42;100.00;100702.22;6215928;22;45368;-64
2022/12/22 06:39:05;;;;;;;;;0.00;0.00;;;;;13.42;100.00;100702.22;6215376;22;44801;-65
2022/12/22 06:44:14;;;;;;;;;0.00;0.00;;;;;13.38;100.00;100706.88;6215409;22;45308;-64
2022/12/22 06:46:39;;;;;;;;;2.00;0.00;;;;;13.37;100.00;100718.50;6214587;22;59097;-64
2022/12/22 06:49:05;;;;;;;;;0.00;0.00;;;;;13.36;100.00;100715.00;6213472;22;59765;-64
2022/12/22 06:51:30;;;;;;;;;2.00;0.00;;;;;13.38;100.00;100712.22;6214962;22;46061;-64
2022/12/22 06:53:55;;;;;;;;;0.00;0.00;;;;;13.36;100.00;100717.66;6213911;22;64080;-64
2022/12/22 06:56:20;;;;;;;;;1.00;0.00;;;;;13.33;100.00;100722.31;6214374;22;45336;-63
2022/12/22 06:58:46;;;;;;;;;0.00;0.00;;;;;13.33;100.00;100725.81;6214924;22;45356;-64
2022/12/22 07:01:11;;;;;;;;;2.33;1.00;;;;;13.36;100.00;100727.44;6214124;22;64983;-62
2022/12/22 07:03:37;;;;;;;;;0.67;0.00;;;;;13.34;100.00;100732.03;6214408;22;58331;-63
2022/12/22 07:06:03;;;;;;;;;1.67;1.00;;;;;13.32;100.00;100726.78;6215206;22;45256;-62
2022/12/22 07:08:28;;;;;;;;;2.00;2.00;;;;;13.27;100.00;100739.59;6215552;22;45348;-63
2022/12/22 07:10:56;;;;;;;;;2.00;2.00;;;;;13.21;100.00;100730.13;6214208;22;63417;-63
2022/12/22 07:13:23;;;;;;;;;1.33;1.33;;;;;13.21;100.00;100739.97;6215895;22;45284;-63
2022/12/22 07:15:49;;;;;;;;;5.33;1.67;;;;;13.20;100.00;100727.56;6214002;22;45407;-63
2022/12/22 07:18:14;;;;;;;;;8.33;2.00;;;;;13.21;100.00;100739.97;6212475;22;45463;-63
2022/12/22 07:20:40;;;;;;;;;5.67;2.33;;;;;13.22;100.00;100739.00;6212542;22;45405;-63
2022/12/22 07:23:05;;;;;;;;;5.67;3.00;;;;;13.25;100.00;100752.16;6212143;22;45217;-63
2022/12/22 07:25:30;;;;;;;;;5.00;1.33;;;;;13.28;100.00;100751.97;6213352;22;45320;-63
2022/12/22 07:27:56;;;;;;;;;5.00;4.67;;;;;13.30;100.00;100751.91;6212574;22;45275;-63
2022/12/22 07:30:21;;;;;;;;;7.00;4.00;;;;;13.31;100.00;100756.25;6212596;22;45511;-64
2022/12/22 07:32:46;;;;;;;;;7.33;5.00;;;;;13.31;100.00;100756.25;6213534;22;59399;-63
2022/12/22 07:35:12;;;;;;;;;6.67;3.67;;;;;13.29;100.00;100751.00;6215084;22;58488;-63
2022/12/22 07:37:37;;;;;;;;;10.00;3.00;;;;;13.29;100.00;100753.69;6214064;22;45629;-63
2022/12/22 07:40:03;;;;;;;;;4.00;4.00;;;;;13.26;100.00;100763.69;6214347;22;65324;-63
2022/12/22 07:42:43;;;;;;;;;6.00;4.67;;;;;13.25;100.00;100762.84;6214212;22;45186;-64
2022/12/22 07:45:18;;;;;;;;;8.33;4.33;;;;;13.22;100.00;100761.22;6216301;22;45181;-63
2022/12/22 07:47:45;;;;;;;;;4.33;3.67;;;;;13.24;100.00;100758.44;6214174;22;45301;-62
2022/12/22 07:50:24;;;;;;;;;6.67;4.00;;;;;13.28;100.00;100759.13;6215442;22;45229;-63
2022/12/22 07:52:50;;;;;;;;;6.33;5.00;;;;;13.30;100.00;100771.44;6215196;22;45270;-63
2022/12/22 07:55:15;;;;;;;;;11.00;6.33;;;;;13.30;100.00;100768.75;6215673;22;45229;-63
2022/12/22 07:57:41;;;;;;;;;12.00;6.00;;;;;13.29;100.00;100760.84;6215387;22;50278;-64
2022/12/22 08:00:07;;;;;;;;;17.00;7.33;;;;;13.29;100.00;100760.84;6215728;22;46965;-63
2022/12/22 08:02:32;;;;;;;;;9.00;6.00;;;;;13.29;100.00;100758.19;6216061;22;45279;-65
2022/12/22 08:04:58;;;;;;;;;9.00;5.00;;;;;13.29;100.00;100766.19;6214964;22;61950;-63
2022/12/22 08:07:23;;;;;;;;;9.67;6.67;;;;;13.30;100.00;100774.09;6216464;22;45877;-64
2022/12/22 08:09:48;;;;;;;;;10.00;6.00;;;;;13.27;100.00;100766.28;6215613;22;45980;-63
2022/12/22 08:12:13;;;;;;;;;15.33;6.33;;;;;13.27;100.00;100766.28;6215137;22;61791;-63
2022/12/22 08:14:39;;;;;;;;;19.33;8.67;;;;;13.25;100.00;100770.88;6216375;22;56885;-66
2022/12/22 08:17:04;;;;;;;;;11.33;6.00;;;;;13.26;100.00;100782.38;6216304;22;51331;-63
2022/12/22 08:19:31;;;;;;;;;13.33;10.00;;;;;13.25;100.00;100784.22;6215818;22;64486;-63
2022/12/22 08:21:57;;;;;;;;;17.67;5.33;;;;;13.28;100.00;100785.84;6215858;22;45238;-55
2022/12/22 08:24:22;;;;;;;;;8.67;8.00;;;;;13.35;100.00;100779.16;6215628;22;45283;-56
2022/12/22 08:26:52;;;;;;;;;14.33;7.33;;;;;13.44;100.00;100783.09;6214428;22;55761;-57
2022/12/22 08:29:24;;;;;;;;;14.33;5.67;;;;;13.53;100.00;100795.88;6213785;22;46122;-57
2022/12/22 08:31:49;;;;;;;;;12.33;3.67;;;;;13.56;100.00;100796.56;6214969;22;45371;-56
2022/12/22 08:34:15;;;;;;;;;10.00;8.00;;;;;13.59;100.00;100790.16;6215873;22;57824;-57
2022/12/22 08:36:43;;;;;;;;;13.00;7.67;;;;;13.64;100.00;100801.44;6216628;22;45274;-57
2022/12/22 08:39:09;;;;;;;;;14.00;7.67;;;;;13.68;100.00;100794.06;6216145;22;46271;-57
2022/12/22 08:41:50;;;;;;;;;12.00;5.33;;;;;13.76;100.00;100794.44;6188453;22;45182;-57
2022/12/22 08:44:27;;;;;;;;;11.67;8.33;;;;;13.82;100.00;100785.16;6216316;22;45354;-57
2022/12/22 08:46:53;;;;;;;;;17.00;9.33;;;;;13.83;100.00;100793.09;6216420;22;45256;-58
2022/12/22 08:49:19;;;;;;;;;19.67;9.67;;;;;13.83;100.00;100778.88;6188885;22;45331;-56
2022/12/22 08:51:45;;;;;;;;;10.00;9.00;;;;;13.85;100.00;100780.47;6214444;22;45238;-58
2022/12/22 08:54:11;;;;;;;;;20.00;9.00;;;;;13.87;100.00;100788.41;6216306;22;45248;-55
2022/12/22 08:56:36;;;;;;;;;14.33;9.00;;;;;13.89;100.00;100791.84;6215672;22;45260;-56
2022/12/22 08:59:04;;;;;;;;;25.00;11.00;;;;;13.94;100.00;100787.06;6214686;22;59884;-55
2022/12/22 09:01:31;;;;;;;;;13.00;11.33;;;;;13.99;100.00;100779.59;6215894;22;45327;-57
2022/12/22 09:03:56;;;;;;;;;18.00;8.00;;;;;14.03;100.00;100774.91;6215700;22;45278;-57
2022/12/22 09:06:23;;;;;;;;;18.33;9.00;;;;;14.05;100.00;100779.22;6216272;22;45463;-58
2022/12/22 09:08:56;;;;;;;;;22.00;10.00;;;;;14.08;100.00;100770.13;6215502;22;46637;-57
2022/12/22 09:11:21;;;;;;;;;12.00;9.00;;;;;14.06;100.00;100775.56;6189258;22;45236;-57
2022/12/22 09:13:49;;;;;;;;;15.33;8.33;;;;;14.07;100.00;100782.63;6163102;22;45381;-57
2022/12/22 09:16:15;;;;;;;;;13.67;8.00;;;;;14.09;100.00;100777.19;6216462;22;45269;-58
2022/12/22 09:18:40;;;;;;;;;15.67;9.67;;;;;14.13;100.00;100778.72;6215254;22;63173;-57
2022/12/22 09:21:05;;;;;;;;;14.33;12.33;;;;;14.16;100.00;100780.34;6215299;22;55099;-55
2022/12/22 09:23:31;;;;;;;;;24.33;10.33;;;;;14.19;100.00;100789.00;6215783;22;51507;-57
2022/12/22 09:25:57;;;;;;;;;13.67;7.33;;;;;14.22;100.00;100786.13;6213816;22;45280;-58
2022/12/22 09:28:22;;;;;;;;;13.00;7.33;;;;;14.27;100.00;100790.31;6213912;22;46994;-58
2022/12/22 09:30:52;;;;;;;;;14.33;9.67;;;;;14.29;100.00;100794.63;6213882;22;64119;-57
2022/12/22 09:33:17;;;;;;;;;14.67;8.00;;;;;14.32;100.00;100782.84;6216234;22;45332;-58
2022/12/22 09:35:43;;;;;;;;;9.67;7.00;;;;;14.36;100.00;100784.34;6215921;22;45225;-57
2022/12/22 09:38:08;;;;;;;;;10.33;9.00;;;;;14.41;100.00;100786.75;6215691;22;59496;-57
2022/12/22 09:40:34;;;;;;;;;14.67;8.33;;;;;14.47;100.00;100792.53;6215317;22;66818;-58
2022/12/22 09:42:59;;;;;;;;;14.00;7.33;;;;;14.49;100.00;100790.59;6215268;22;57962;-57
2022/12/22 09:45:25;;;;;;;;;14.00;8.33;;;;;14.57;100.00;100800.81;6215708;22;57381;-57
2022/12/22 09:47:52;;;;;;;;;13.67;9.67;;;;;14.62;100.00;100806.69;6187921;22;64019;-57
2022/12/22 09:50:23;;;;;;;;;9.33;7.00;;;;;14.70;100.00;100801.72;6188816;22;45142;-57
2022/12/22 09:53:01;;;;;;;;;18.33;8.67;;;;;14.75;100.00;100816.63;6215466;22;45254;-57
2022/12/22 09:55:41;;;;;;;;;16.33;7.67;;;;;14.79;100.00;100802.91;6215608;22;45197;-57
2022/12/22 09:58:18;;;;;;;;;12.33;8.33;;;;;14.81;100.00;100813.53;6188679;22;45780;-57
2022/12/22 10:01:12;;;;;;;;;16.67;8.33;;;;;14.80;100.00;100814.50;6215438;22;45353;-57
2022/12/22 10:03:54;;;;;;;;;14.00;7.00;;;;;14.80;100.00;100807.31;6211275;22;45511;-57
2022/12/22 10:06:28;;;;;;;;;16.00;11.00;;;;;14.83;100.00;100803.56;6215747;22;45372;-58
2022/12/22 10:08:53;;;;;;;;;15.00;10.67;;;;;14.84;100.00;100806.16;6188622;22;46235;-58
2022/12/22 10:11:19;;;;;;;;;17.00;8.33;;;;;14.84;100.00;100795.44;6215179;22;45289;-57
2022/12/22 10:13:45;;;;;;;;;18.67;9.67;;;;;14.85;100.00;100801.66;6215776;22;45286;-56
2022/12/22 10:16:26;;;;;;;;;18.00;9.67;;;;;14.88;100.00;100810.31;6214982;22;64332;-56
2022/12/22 10:19:15;;;;;;;;;15.00;12.00;;;;;14.85;100.00;100801.66;6214728;22;46201;-56
2022/12/22 10:21:40;;;;;;;;;12.33;8.00;;;;;14.88;100.00;100798.78;6215128;22;45332;-66
2022/12/22 10:24:18;;;;;;;;;18.00;8.33;;;;;14.89;100.00;100806.69;6187439;22;45401;-66
2022/12/22 10:26:43;;;;;;;;;15.00;10.00;;;;;14.91;100.00;100793.19;6214534;22;45470;-66
2022/12/22 10:29:13;;;;;;;;;18.00;11.67;;;;;14.97;100.00;100799.97;6214434;22;53269;-66
2022/12/22 10:32:15;;;;;;;;;18.67;7.67;;;;;15.03;100.00;100803.06;6215068;22;45277;-66
2022/12/22 10:34:59;;;;;;;;;11.33;8.33;;;;;15.09;100.00;100803.63;6215263;22;45303;-66
2022/12/22 10:37:35;;;;;;;;;15.67;9.33;;;;;15.11;98.94;100791.84;6214627;22;45451;-66
2022/12/22 10:40:17;;;;;;;;;13.33;9.67;;;;;15.13;100.00;100797.94;6214705;22;46156;-66
2022/12/22 10:42:44;;;;;;;;;34.00;21.67;;;;;15.18;98.11;100789.59;6214993;22;45336;-66
2022/12/22 10:45:16;;;;;;;;;21.33;11.33;;;;;15.17;96.34;100791.38;6215188;22;45665;-66
2022/12/22 10:47:46;;;;;;;;;23.00;16.33;;;;;15.10;98.25;100795.47;6188621;22;45249;-66
2022/12/22 10:50:11;;;;;;;;;12.00;7.33;;;;;15.07;98.84;100786.78;6215136;22;45237;-66
2022/12/22 10:52:37;;;;;;;;;20.33;11.67;;;;;15.05;99.50;100792.25;6188562;22;45568;-66
2022/12/22 10:55:24;;;;;;;;;14.33;8.67;;;;;15.04;98.62;100786.06;6215222;22;45273;-66
2022/12/22 10:57:50;;;;;;;;;24.67;12.33;;;;;15.03;98.21;100794.16;6214277;22;45327;-66
2022/12/22 11:00:30;;;;;;;;;10.33;8.67;;;;;15.01;95.85;100804.16;6215103;22;45369;-66
2022/12/22 11:02:58;;;;;;;;;18.67;11.00;;;;;14.98;97.78;100802.53;6204620;22;45361;-66
2022/12/22 11:05:23;;;;;;;;;14.00;9.33;;;;;14.97;97.52;100802.66;6213645;22;45324;-66
2022/12/22 11:07:49;;;;;;;;;24.67;9.33;;;;;14.99;98.00;100796.22;6214444;22;46521;-67
2022/12/22 11:10:37;;;;;;;;;12.00;8.33;;;;;15.03;98.01;100788.81;6214615;22;45861;-66
2022/12/22 11:13:03;;;;;;;;;10.33;9.33;;;;;15.03;98.03;100795.03;6176818;22;45249;-65
2022/12/22 11:15:38;;;;;;;;;13.00;9.00;;;;;15.06;97.29;100793.97;6186750;22;45336;-65
2022/12/22 11:18:18;;;;;;;;;17.00;9.67;;;;;15.05;97.20;100786.91;6187167;22;45563;-65
2022/12/22 11:21:09;;;;;;;;;14.00;11.00;;;;;15.03;97.90;100805.75;6212066;22;46254;-64
2022/12/22 11:23:45;;;;;;;;;12.33;10.33;;;;;14.99;98.30;100788.19;6215314;22;45288;-64
2022/12/22 11:26:21;;;;;;;;;11.33;9.33;;;;;15.02;97.41;100777.25;6214776;22;45275;-67
2022/12/22 11:29:17;;;;;;;;;10.00;7.00;;;;;15.04;97.69;100774.47;6213872;22;45214;-65
2022/12/22 11:31:54;;;;;;;;;16.67;7.67;;;;;15.08;97.19;100777.78;6186723;22;45412;-65
2022/12/22 11:34:44;;;;;;;;;13.00;9.33;;;;;15.08;96.96;100775.13;6215007;22;45345;-65
2022/12/22 11:37:30;;;;;;;;;20.00;9.00;;;;;15.11;96.65;100780.25;6214182;22;45166;-65
2022/12/22 11:40:14;;;;;;;;;17.00;10.67;;;;;15.03;96.02;100775.41;6187230;22;45407;-65
2022/12/22 11:42:55;;;;;;;;;22.00;10.00;;;;;15.01;95.58;100780.88;6187161;22;45940;-65
2022/12/22 11:45:26;;;;;;;;;10.00;7.00;;;;;15.00;96.82;100768.44;6187525;22;45320;-65
2022/12/22 11:48:13;;;;;;;;;13.33;9.00;;;;;15.05;95.66;100770.81;6214547;22;45215;-65
2022/12/22 11:50:46;;;;;;;;;15.67;7.00;;;;;15.07;95.29;100771.59;6188271;22;45293;-65
2022/12/22 11:53:49;;;;;;;;;14.33;10.33;;;;;15.08;95.82;100762.56;6187821;22;45585;-65
2022/12/22 11:56:24;;;;;;;;;17.00;9.67;;;;;15.12;95.33;100755.19;6214361;22;45300;-65
2022/12/22 11:58:56;;;;;;;;;19.00;12.00;;;;;15.16;96.23;100754.00;6213433;22;45344;-64
2022/12/22 12:01:49;;;;;;;;;20.00;11.33;;;;;15.22;93.95;100746.38;6213018;22;45819;-65
2022/12/22 12:04:35;;;;;;;;;9.67;8.33;;;;;15.28;94.63;100744.22;6214145;22;46061;-64
2022/12/22 12:07:23;;;;;;;;;13.67;8.00;;;;;15.31;94.21;100752.91;6213423;22;45380;-64
2022/12/22 12:10:15;;;;;;;;;14.67;9.67;;;;;15.32;94.21;100740.41;6213118;22;45335;-65
2022/12/22 12:13:06;;;;;;;;;15.67;9.00;;;;;15.36;92.38;100736.53;6214829;22;45348;-64
2022/12/22 12:16:01;;;;;;;;;12.00;7.67;;;;;15.34;93.86;100733.09;6214345;22;45482;-64
2022/12/22 12:18:26;;;;;;;;;17.33;10.33;;;;;15.32;93.03;100733.19;6193660;22;45095;-64
2022/12/22 12:21:10;;;;;;;;;14.00;10.00;;;;;15.29;92.94;100728.06;6213429;22;45575;-64
2022/12/22 12:24:06;;;;;;;;;21.33;7.67;;;;;15.29;93.28;100724.53;6214938;22;45239;-64
2022/12/22 12:27:03;;;;;;;;;12.67;10.00;;;;;15.30;92.48;100726.25;6214720;22;45295;-63
2022/12/22 12:29:36;;;;;;;;;13.67;9.67;;;;;15.28;92.30;100718.31;6214028;22;45174;-64
2022/12/22 12:32:03;;;;;;;;;12.00;8.00;;;;;15.23;92.16;100720.47;6187000;22;45254;-64
2022/12/22 12:34:36;;;;;;;;;16.33;11.33;;;;;15.16;92.91;100708.44;6214878;22;45456;-64
2022/12/22 12:37:30;;;;;;;;;15.00;10.67;;;;;15.12;91.95;100709.63;6186331;22;46045;-65
2022/12/22 12:40:23;;;;;;;;;17.67;9.33;;;;;15.07;92.39;100695.72;6208980;22;45387;-65
2022/12/22 12:42:49;;;;;;;;;15.00;7.00;;;;;15.08;93.29;100700.13;6212949;22;45403;-65
2022/12/22 12:45:32;;;;;;;;;13.33;10.33;;;;;15.08;93.53;100700.97;6187381;22;45588;-65
2022/12/22 12:48:19;;;;;;;;;13.00;10.33;;;;;15.08;93.22;100694.75;6213773;22;46186;-64
2022/12/22 12:50:45;;;;;;;;;13.33;11.33;;;;;15.04;93.47;100689.63;6214663;22;45230;-65
2022/12/22 12:53:11;;;;;;;;;17.00;11.67;;;;;15.01;93.23;100681.78;6216243;22;45300;-66
2022/12/22 12:55:39;;;;;;;;;18.00;12.00;;;;;14.98;93.46;100673.97;6216643;22;45291;-67
2022/12/22 12:58:09;;;;;;;;;21.00;10.00;;;;;14.97;93.75;100676.78;6214783;22;45297;-67
2022/12/22 13:00:34;;;;;;;;;16.67;11.67;;;;;14.94;94.08;100668.94;6163720;22;45567;-64
2022/12/22 13:03:06;;;;;;;;;21.67;11.67;;;;;14.92;94.21;100669.06;6215432;22;45284;-64
2022/12/22 13:05:54;;;;;;;;;17.00;8.67;;;;;14.92;94.65;100674.41;6214310;22;45249;-64
2022/12/22 13:08:28;;;;;;;;;18.00;13.00;;;;;14.90;94.65;100662.97;6215945;22;46441;-64
2022/12/22 13:10:53;;;;;;;;;20.00;8.33;;;;;14.84;96.50;100663.38;6214754;22;45733;-65
2022/12/22 13:13:25;;;;;;;;;15.00;8.67;;;;;14.79;96.99;100661.03;6215689;22;45422;-64
2022/12/22 13:15:59;;;;;;;;;9.00;6.67;;;;;14.68;97.12;100653.75;6215510;22;45293;-64
2022/12/22 13:18:24;;;;;;;;;13.00;8.00;;;;;14.65;97.57;100655.78;6215992;22;45387;-64
2022/12/22 13:21:04;;;;;;;;;16.67;7.00;;;;;14.58;98.43;100654.47;6215146;22;45233;-64
2022/12/22 13:24:21;;;;;;;;;11.00;8.67;;;;;14.47;99.15;100649.84;6216392;22;45271;-64
2022/12/22 13:26:49;;;;;;;;;14.00;8.67;;;;;14.38;99.56;100646.84;6136631;22;45396;-64
2022/12/22 13:29:21;;;;;;;;;17.00;10.33;;;;;14.33;100.00;100651.66;6187575;22;46112;-64
2022/12/22 13:32:03;;;;;;;;;15.00;10.00;;;;;14.31;100.00;100639.34;6215255;22;45403;-64
2022/12/22 13:34:40;;;;;;;;;13.67;10.00;;;;;14.30;100.00;100646.50;6215208;22;45275;-64
2022/12/22 13:37:15;;;;;;;;;27.67;16.67;;;;;14.13;100.00;100639.63;6213395;22;45284;-65
2022/12/22 13:39:40;;;;;;;;;15.67;11.33;;;;;14.15;100.00;100632.34;6214179;22;46818;-64
2022/12/22 13:42:06;;;;;;;;;73.00;61.75;;;;;14.14;100.00;100632.47;6187987;22;45257;-64
2022/12/22 13:44:32;;;;;;;;;17.00;9.67;;;;;14.11;100.00;100624.66;6215828;22;45495;-64
2022/12/22 13:47:04;;;;;;;;;22.67;10.00;;;;;14.07;100.00;100618.66;6187909;22;45423;-64
2022/12/22 13:49:30;;;;;;;;;13.33;10.00;;;;;14.03;100.00;100634.03;6189128;22;45324;-64
2022/12/22 13:51:56;;;;;;;;;8.67;8.33;;;;;14.01;100.00;100619.91;6214489;22;45338;-65
2022/12/22 13:54:28;;;;;;;;;12.33;10.00;;;;;14.03;100.00;100601.94;6215361;22;59828;-64
2022/12/22 13:56:55;;;;;;;;;15.67;9.33;;;;;14.02;100.00;100604.72;6188418;22;45647;-63
2022/12/22 13:59:53;;;;;;;;;17.00;10.33;;;;;13.99;100.00;100597.78;6214291;22;46953;-64
2022/12/22 14:02:20;;;;;;;;;14.33;8.33;;;;;13.93;100.00;100600.84;6160910;22;45343;-65
2022/12/22 14:05:07;;;;;;;;;12.67;10.00;;;;;13.87;100.00;100587.88;6213915;22;45377;-65
2022/12/22 14:07:32;;;;;;;;;16.00;9.67;;;;;13.82;100.00;100582.00;6214191;22;45439;-64
2022/12/22 14:09:58;;;;;;;;;15.67;8.67;;;;;13.69;100.00;100582.81;6212836;22;46970;-64
2022/12/22 14:12:26;;;;;;;;;15.67;12.00;;;;;13.62;100.00;100578.84;6214396;22;45366;-64
2022/12/22 14:14:53;;;;;;;;;10.33;8.67;;;;;13.66;100.00;100572.34;6187009;22;45440;-64
2022/12/22 14:17:22;;;;;;;;;11.00;9.00;;;;;13.54;100.00;100567.81;6214814;22;45518;-64
2022/12/22 14:19:50;;;;;;;;;12.33;7.33;;;;;13.52;100.00;100575.09;6185955;22;45632;-65
2022/12/22 14:22:18;;;;;;;;;16.33;8.33;;;;;13.39;100.00;100562.50;6214651;22;45289;-64
2022/12/22 14:24:47;;;;;;;;;14.00;8.67;;;;;17.47;100.00;100555.78;6186410;22;45586;-64
2022/12/22 14:27:33;;;;;;;;;9.67;7.00;;;;;22.21;100.00;100563.50;6162899;22;45896;-66
2022/12/22 14:30:01;;;;;;;;;9.00;6.67;;;;;14.91;100.00;100562.06;6213068;22;47034;-64
2022/12/22 14:32:42;;;;;;;;;8.33;8.33;;;;;14.18;100.00;100561.75;6186925;22;45329;-64
2022/12/22 14:35:25;;;;;;;;;14.33;5.67;;;;;13.90;100.00;100569.00;6214133;22;45292;-64
2022/12/22 14:38:23;;;;;;;;;7.67;5.33;;;;;15.85;100.00;100572.09;6213484;22;45328;-64
2022/12/22 14:40:49;;;;;;;;;9.67;8.33;;;;;14.82;100.00;100553.72;6212881;22;46274;-64
2022/12/22 14:43:17;;;;;;;;;10.00;7.67;;;;;14.02;100.00;100541.41;6214404;22;45284;-65
2022/12/22 14:45:44;;;;;;;;;9.67;6.00;;;;;13.77;100.00;100536.03;6214166;22;45270;-65
2022/12/22 14:48:26;;;;;;;;;11.33;8.67;;;;;13.63;100.00;100519.09;6215193;22;45360;-64
2022/12/22 14:50:53;;;;;;;;;10.00;7.00;;;;;13.48;100.00;100523.66;6214112;22;46338;-64
2022/12/22 14:53:30;;;;;;;;;9.33;5.33;;;;;13.37;100.00;100511.00;6188809;22;45334;-65
2022/12/22 14:55:55;;;;;;;;;5.00;4.00;;;;;13.31;100.00;100513.19;6187219;22;45258;-64
2022/12/22 14:58:25;;;;;;;;;12.33;5.33;;;;;13.27;100.00;100507.22;6215668;22;45300;-64
2022/12/22 15:01:19;;;;;;;;;10.33;7.33;;;;;13.20;100.00;100504.06;6187755;22;45298;-64
2022/12/22 15:04:06;;;;;;;;;10.33;5.00;;;;;13.29;100.00;100497.25;6214582;22;45225;-64
2022/12/22 15:06:38;;;;;;;;;9.00;4.67;;;;;-147.14;100.00;58812.66;6252724;22;27684;-65
2022/12/22 15:09:03;;;;;;;;;9.50;4.00;;;;;-147.14;100.00;58812.66;6231410;22;9066;-64
2022/12/22 15:11:30;;;;;;;;;7.67;5.00;;;;;13.67;100.00;100475.16;6257684;22;27650;-63
2022/12/22 15:13:55;;;;;;;;;8.00;7.00;;;;;-147.14;100.00;58812.66;6256280;22;26726;-65
2022/12/22 15:16:22;;;;;;;;;9.67;6.00;;;;;-147.14;100.00;58812.66;6232208;22;9172;-65
2022/12/22 15:18:48;;;;;;;;;7.75;6.00;;;;;-147.14;100.00;58812.66;6258832;22;8728;-65
2022/12/22 15:21:15;;;;;;;;;10.25;5.75;;;;;-147.14;100.00;58812.66;6258928;22;8788;-65
2022/12/22 15:23:40;;;;;;;;;7.75;4.75;;;;;-147.14;100.00;58812.66;6259175;22;8729;-65
2022/12/22 15:26:06;;;;;;;;;8.00;4.00;;;;;-147.14;100.00;58812.66;6257225;22;8764;-64
2022/12/22 15:28:31;;;;;;;;;8.67;4.00;;;;;13.50;100.00;100432.72;6212160;22;45252;-65
2022/12/22 15:30:58;;;;;;;;;13.00;4.00;;;;;13.36;100.00;100426.50;6213388;22;59608;-65
2022/12/22 15:33:23;;;;;;;;;4.67;4.33;;;;;13.26;100.00;100419.16;6188191;22;45313;-66
2022/12/22 15:35:48;;;;;;;;;7.33;4.67;;;;;13.24;100.00;100422.81;6185775;22;46129;-64
2022/12/22 15:38:19;;;;;;;;;8.33;5.67;;;;;13.09;100.00;100418.50;6213542;22;45388;-66
2022/12/22 15:40:45;;;;;;;;;7.33;5.00;;;;;13.19;100.00;100414.25;6186967;22;46102;-65
2022/12/22 15:43:11;;;;;;;;;7.33;6.33;;;;;13.11;100.00;100411.22;6214900;22;45651;-64
2022/12/22 15:45:37;;;;;;;;;7.00;5.00;;;;;13.08;100.00;100395.41;6188956;22;45661;-66
2022/12/22 15:48:04;;;;;;;;;6.00;5.00;;;;;13.17;100.00;100389.44;6214106;22;45426;-64
2022/12/22 15:50:35;;;;;;;;;4.00;3.00;;;;;13.17;100.00;100377.94;6214577;22;47293;-64
2022/12/22 15:53:03;;;;;;;;;8.00;4.00;;;;;13.19;100.00;100366.19;6213985;22;45383;-65
2022/12/22 15:55:29;;;;;;;;;6.33;4.67;;;;;13.14;100.00;100357.63;6188084;22;45358;-66
2022/12/22 15:57:57;;;;;;;;;7.00;4.00;;;;;13.23;100.00;100350.78;6211371;22;51794;-62
2022/12/22 16:00:22;;;;;;;;;4.33;3.00;;;;;13.30;100.00;100352.09;6188218;22;46974;-66
2022/12/22 16:02:48;;;;;;;;;4.00;3.00;;;;;13.30;100.00;100340.56;6215037;22;45249;-66
2022/12/22 16:05:14;;;;;;;;;4.67;4.33;;;;;13.27;100.00;100338.94;6215679;22;45336;-65
2022/12/22 16:07:41;;;;;;;;;4.00;4.00;;;;;13.26;100.00;100341.69;6188724;22;45480;-65
2022/12/22 16:10:16;;;;;;;;;4.00;4.00;;;;;13.26;100.00;100333.69;6214178;22;46170;-65
2022/12/22 16:12:48;;;;;;;;;5.00;4.00;;;;;13.24;100.00;100333.81;6214916;22;45284;-66
2022/12/22 16:15:14;;;;;;;;;4.00;4.00;;;;;13.27;100.00;100330.06;6213618;22;45171;-66
2022/12/22 16:17:39;;;;;;;;;7.00;4.67;;;;;13.28;100.00;100318.44;6214682;22;61717;-65
2022/12/22 16:20:05;;;;;;;;;3.33;3.00;;;;;13.31;100.00;100327.09;6214337;22;46760;-65
2022/12/22 16:22:32;;;;;;;;;7.67;3.67;;;;;13.32;100.00;100327.94;6215098;22;45241;-65
2022/12/22 16:24:59;;;;;;;;;5.00;4.33;;;;;13.35;100.00;100317.91;6188821;22;45715;-66
2022/12/22 16:27:24;;;;;;;;;4.67;4.33;;;;;13.32;100.00;100302.06;6215342;22;45357;-65
2022/12/22 16:29:52;;;;;;;;;8.67;5.67;;;;;13.30;100.00;100300.50;6214018;22;46034;-65
2022/12/22 16:32:24;;;;;;;;;4.67;4.67;;;;;13.28;100.00;100313.94;6212527;22;45315;-64
2022/12/22 16:34:50;;;;;;;;;5.33;3.33;;;;;13.29;100.00;100302.28;6188883;22;45245;-65
2022/12/22 16:37:15;;;;;;;;;5.33;3.00;;;;;13.30;100.00;100301.34;6214472;22;45237;-65
2022/12/22 16:39:41;;;;;;;;;4.33;2.00;;;;;13.35;100.00;100320.56;6213108;22;68475;-65
2022/12/22 16:42:14;;;;;;;;;9.33;3.00;;;;;13.38;100.00;100319.53;6215947;22;45215;-65
2022/12/22 16:44:42;;;;;;;;;7.33;2.33;;;;;13.44;100.00;100321.78;6216424;22;45299;-65
2022/12/22 16:47:24;;;;;;;;;4.33;3.00;;;;;13.51;100.00;100311.53;6216603;22;45222;-65
2022/12/22 16:49:49;;;;;;;;;5.67;2.00;;;;;13.55;100.00;100321.88;6208363;22;45413;-65
2022/12/22 16:52:20;;;;;;;;;2.00;2.00;;;;;13.58;100.00;100307.44;6187177;22;62609;-68
2022/12/22 16:54:46;;;;;;;;;5.00;2.33;;;;;13.59;100.00;100301.13;6211922;22;45542;-65
2022/12/22 16:57:11;;;;;;;;;2.33;1.33;;;;;13.59;100.00;100281.59;6215045;22;45409;-66
2022/12/22 16:59:37;;;;;;;;;1.00;1.00;;;;;13.62;100.00;100276.03;6212179;22;51695;-66
2022/12/22 17:02:02;;;;;;;;;3.33;2.00;;;;;13.62;100.00;100274.19;6213519;22;62841;-66